createdAt,value
2018-10-01T00:00:51.000Z,27.9
2018-10-01T00:01:51.000Z,28
2018-10-01T00:02:51.000Z,28
2018-10-01T00:04:51.000Z,28.1
2018-10-01T00:05:51.000Z,28.1
2018-10-01T00:07:51.000Z,28.1
2018-10-01T00:08:51.000Z,28.1
2018-10-01T00:09:51.000Z,28.1
2018-10-01T00:11:51.000Z,28.1
2018-10-01T00:12:51.000Z,28.1
2018-10-01T00:14:51.000Z,28.1
2018-10-01T00:16:51.000Z,28
2018-10-01T00:18:51.000Z,27.9
2018-10-01T00:19:51.000Z,27.9
2018-10-01T00:20:51.000Z,27.9
2018-10-01T00:21:51.000Z,27.9
2018-10-01T00:23:36.000Z,28
2018-10-01T00:24:51.000Z,28
2018-10-01T00:26:52.000Z,28
2018-10-01T00:28:52.000Z,27.9
2018-10-01T00:29:52.000Z,27.9
2018-10-01T00:30:52.000Z,27.9
2018-10-01T00:32:52.000Z,27.9
2018-10-01T00:33:52.000Z,27.9
2018-10-01T00:35:52.000Z,27.9
2018-10-01T00:36:52.000Z,28
2018-10-01T00:37:52.000Z,28
2018-10-01T00:39:52.000Z,28.1
2018-10-01T00:41:52.000Z,28.1
2018-10-01T00:43:52.000Z,28
2018-10-01T00:45:52.000Z,27.9
2018-10-01T00:47:52.000Z,27.9
2018-10-01T00:48:52.000Z,27.9
2018-10-01T00:49:52.000Z,27.9
2018-10-01T00:51:52.000Z,28
2018-10-01T00:53:52.000Z,28
2018-10-01T00:54:52.000Z,28
2018-10-01T00:56:52.000Z,28
2018-10-01T00:58:52.000Z,28
2018-10-01T00:59:52.000Z,28
2018-10-01T01:01:37.000Z,28
2018-10-01T01:02:52.000Z,28
2018-10-01T01:03:52.000Z,28
2018-10-01T01:05:52.000Z,28
2018-10-01T01:06:52.000Z,28
2018-10-01T01:07:52.000Z,28.1
2018-10-01T01:09:37.000Z,28.1
2018-10-01T01:10:52.000Z,28.1
2018-10-01T01:11:52.000Z,28.1
2018-10-01T01:12:52.000Z,28.1
2018-10-01T01:13:52.000Z,28.1
2018-10-01T01:15:52.000Z,28.1
2018-10-01T01:17:52.000Z,28
2018-10-01T01:18:52.000Z,28
2018-10-01T01:20:52.000Z,28
2018-10-01T01:22:52.000Z,28
2018-10-01T01:24:52.000Z,27.9
2018-10-01T01:25:52.000Z,27.9
2018-10-01T01:27:52.000Z,27.9
2018-10-01T01:28:52.000Z,27.9
2018-10-01T01:30:52.000Z,27.9
2018-10-01T01:32:52.000Z,27.8
2018-10-01T01:33:52.000Z,27.8
2018-10-01T01:35:52.000Z,27.8
2018-10-01T01:36:52.000Z,27.8
2018-10-01T01:38:36.000Z,27.9
2018-10-01T01:39:52.000Z,27.9
2018-10-01T01:40:52.000Z,27.9
2018-10-01T01:41:52.000Z,27.9
2018-10-01T01:42:52.000Z,27.9
2018-10-01T01:44:52.000Z,28
2018-10-01T01:46:52.000Z,27.9
2018-10-01T01:48:52.000Z,27.9
2018-10-01T01:50:52.000Z,27.8
2018-10-01T01:51:52.000Z,27.8
2018-10-01T01:53:52.000Z,27.8
2018-10-01T01:55:52.000Z,27.8
2018-10-01T01:57:52.000Z,27.8
2018-10-01T01:58:52.000Z,27.8
2018-10-01T02:00:52.000Z,27.8
2018-10-01T02:02:52.000Z,27.7
2018-10-01T02:03:52.000Z,27.7
2018-10-01T02:05:52.000Z,27.7
2018-10-01T02:07:36.000Z,27.8
2018-10-01T02:08:52.000Z,27.8
2018-10-01T02:10:52.000Z,27.8
2018-10-01T02:11:52.000Z,27.8
2018-10-01T02:13:52.000Z,27.8
2018-10-01T02:15:52.000Z,27.8
2018-10-01T02:16:52.000Z,27.8
2018-10-01T02:18:52.000Z,27.8
2018-10-01T02:20:52.000Z,27.8
2018-10-01T02:21:52.000Z,27.8
2018-10-01T02:23:52.000Z,27.9
2018-10-01T02:25:52.000Z,27.8
2018-10-01T02:26:52.000Z,27.8
2018-10-01T02:27:52.000Z,27.8
2018-10-01T02:29:52.000Z,27.9
2018-10-01T02:31:52.000Z,27.8
2018-10-01T02:32:52.000Z,27.8
2018-10-01T02:33:51.000Z,27.8
2018-10-01T02:35:51.000Z,27.9
2018-10-01T02:37:51.000Z,27.8
2018-10-01T02:39:51.000Z,27.8
2018-10-01T02:41:51.000Z,27.8
2018-10-01T02:43:51.000Z,27.8
2018-10-01T02:44:51.000Z,27.8
2018-10-01T02:46:51.000Z,27.8
2018-10-01T02:47:51.000Z,27.8
2018-10-01T02:49:51.000Z,27.9
2018-10-01T02:51:51.000Z,27.9
2018-10-01T02:52:51.000Z,27.9
2018-10-01T02:53:51.000Z,27.9
2018-10-01T02:55:51.000Z,28
2018-10-01T02:57:51.000Z,27.9
2018-10-01T02:58:51.000Z,27.9
2018-10-01T03:00:51.000Z,27.9
2018-10-01T03:02:51.000Z,27.8
2018-10-01T03:03:51.000Z,27.8
2018-10-01T03:04:51.000Z,27.9
2018-10-01T03:06:51.000Z,27.9
2018-10-01T03:08:51.000Z,27.9
2018-10-01T03:10:51.000Z,27.9
2018-10-01T03:11:51.000Z,27.9
2018-10-01T03:13:51.000Z,27.9
2018-10-01T03:14:51.000Z,27.9
2018-10-01T03:16:51.000Z,27.9
2018-10-01T03:17:51.000Z,28
2018-10-01T03:19:51.000Z,27.9
2018-10-01T03:20:51.000Z,27.9
2018-10-01T03:21:51.000Z,27.9
2018-10-01T03:23:51.000Z,27.9
2018-10-01T03:24:51.000Z,27.9
2018-10-01T03:25:51.000Z,27.9
2018-10-01T03:26:51.000Z,28
2018-10-01T03:28:51.000Z,28
2018-10-01T03:29:51.000Z,28
2018-10-01T03:31:51.000Z,28.1
2018-10-01T03:33:51.000Z,28
2018-10-01T03:34:51.000Z,28
2018-10-01T03:35:51.000Z,28
2018-10-01T03:37:52.000Z,28
2018-10-01T03:39:52.000Z,28
2018-10-01T03:40:52.000Z,28
2018-10-01T03:42:52.000Z,28
2018-10-01T03:44:52.000Z,27.9
2018-10-01T03:45:52.000Z,27.9
2018-10-01T03:47:52.000Z,27.9
2018-10-01T03:48:52.000Z,27.9
2018-10-01T03:50:52.000Z,27.9
2018-10-01T03:51:52.000Z,27.9
2018-10-01T03:53:52.000Z,27.9
2018-10-01T03:55:52.000Z,27.9
2018-10-01T03:57:52.000Z,27.8
2018-10-01T03:58:52.000Z,27.8
2018-10-01T03:59:52.000Z,27.8
2018-10-01T04:00:52.000Z,27.9
2018-10-01T04:02:52.000Z,27.9
2018-10-01T04:04:52.000Z,27.8
2018-10-01T04:05:52.000Z,27.8
2018-10-01T04:06:52.000Z,27.8
2018-10-01T04:07:52.000Z,27.9
2018-10-01T04:09:52.000Z,27.9
2018-10-01T04:10:52.000Z,27.9
2018-10-01T04:12:52.000Z,27.9
2018-10-01T04:13:52.000Z,27.9
2018-10-01T04:14:52.000Z,27.9
2018-10-01T04:16:52.000Z,27.9
2018-10-01T04:17:52.000Z,27.9
2018-10-01T04:19:52.000Z,27.9
2018-10-01T04:20:52.000Z,27.9
2018-10-01T04:21:52.000Z,28
2018-10-01T04:23:52.000Z,27.9
2018-10-01T04:25:52.000Z,27.9
2018-10-01T04:26:52.000Z,27.8
2018-10-01T04:27:52.000Z,27.9
2018-10-01T04:28:52.000Z,27.9
2018-10-01T04:30:52.000Z,27.9
2018-10-01T04:31:52.000Z,27.9
2018-10-01T04:32:52.000Z,27.9
2018-10-01T04:34:52.000Z,27.9
2018-10-01T04:35:52.000Z,27.9
2018-10-01T04:37:52.000Z,27.9
2018-10-01T04:39:52.000Z,27.9
2018-10-01T04:41:51.000Z,27.9
2018-10-01T04:43:51.000Z,27.8
2018-10-01T04:44:51.000Z,27.9
2018-10-01T04:46:51.000Z,27.9
2018-10-01T04:48:51.000Z,27.9
2018-10-01T04:49:51.000Z,27.8
2018-10-01T04:51:51.000Z,27.9
2018-10-01T04:53:51.000Z,27.9
2018-10-01T04:54:51.000Z,27.9
2018-10-01T04:55:51.000Z,27.9
2018-10-01T04:57:51.000Z,28
2018-10-01T04:58:51.000Z,28
2018-10-01T05:00:51.000Z,28
2018-10-01T05:02:51.000Z,28
2018-10-01T05:04:36.000Z,28
2018-10-01T05:05:51.000Z,28
2018-10-01T05:06:51.000Z,28
2018-10-01T05:08:51.000Z,28
2018-10-01T05:10:51.000Z,28
2018-10-01T05:11:51.000Z,28
2018-10-01T05:13:36.000Z,28
2018-10-01T05:14:51.000Z,28
2018-10-01T05:15:51.000Z,28
2018-10-01T05:17:51.000Z,28
2018-10-01T05:18:51.000Z,28
2018-10-01T05:20:51.000Z,28.1
2018-10-01T05:22:51.000Z,28.1
2018-10-01T05:23:51.000Z,28.1
2018-10-01T05:25:36.000Z,28.1
2018-10-01T05:26:51.000Z,28.1
2018-10-01T05:28:51.000Z,28.1
2018-10-01T05:30:51.000Z,28.1
2018-10-01T05:31:51.000Z,28.1
2018-10-01T05:32:51.000Z,28.1
2018-10-01T05:33:51.000Z,28.2
2018-10-01T05:35:51.000Z,28.2
2018-10-01T05:37:51.000Z,28.1
2018-10-01T05:39:36.000Z,28.1
2018-10-01T05:40:51.000Z,28.1
2018-10-01T05:42:51.000Z,28.1
2018-10-01T05:44:52.000Z,28.1
2018-10-01T05:46:52.000Z,28.1
2018-10-01T05:47:52.000Z,28.1
2018-10-01T05:48:52.000Z,28.1
2018-10-01T05:50:52.000Z,28.1
2018-10-01T05:51:52.000Z,28.1
2018-10-01T05:53:52.000Z,28.2
2018-10-01T05:54:52.000Z,28.3
2018-10-01T05:55:52.000Z,28.3
2018-10-01T05:57:52.000Z,28.4
2018-10-01T05:59:52.000Z,28.4
2018-10-01T06:01:52.000Z,28.3
2018-10-01T06:03:52.000Z,28.3
2018-10-01T06:04:52.000Z,28.3
2018-10-01T06:06:52.000Z,28.3
2018-10-01T06:08:37.000Z,28.3
2018-10-01T06:09:52.000Z,28.3
2018-10-01T06:10:52.000Z,28.3
2018-10-01T06:12:52.000Z,28.3
2018-10-01T06:13:52.000Z,28.4
2018-10-01T06:14:52.000Z,28.4
2018-10-01T06:16:52.000Z,28.5
2018-10-01T06:18:52.000Z,28.6
2018-10-01T06:20:52.000Z,28.6
2018-10-01T06:22:37.000Z,28.6
2018-10-01T06:23:52.000Z,28.5
2018-10-01T06:25:52.000Z,28.5
2018-10-01T06:26:52.000Z,28.5
2018-10-01T06:28:52.000Z,28.6
2018-10-01T06:29:52.000Z,28.6
2018-10-01T06:31:52.000Z,28.7
2018-10-01T06:33:52.000Z,28.7
2018-10-01T06:34:52.000Z,28.7
2018-10-01T06:36:52.000Z,28.8
2018-10-01T06:38:37.000Z,28.8
2018-10-01T06:39:52.000Z,28.8
2018-10-01T06:41:52.000Z,28.8
2018-10-01T06:43:52.000Z,28.9
2018-10-01T06:45:52.000Z,28.9
2018-10-01T06:46:52.000Z,28.9
2018-10-01T06:47:52.000Z,29
2018-10-01T06:49:52.000Z,29
2018-10-01T06:50:52.000Z,29.1
2018-10-01T06:52:52.000Z,29.2
2018-10-01T06:54:52.000Z,29.3
2018-10-01T06:56:52.000Z,29.3
2018-10-01T06:57:52.000Z,29.4
2018-10-01T06:58:52.000Z,29.5
2018-10-01T07:00:52.000Z,29.6
2018-10-01T07:02:52.000Z,29.6
2018-10-01T07:04:52.000Z,29.7
2018-10-01T07:06:52.000Z,29.8
2018-10-01T07:07:52.000Z,29.8
2018-10-01T07:08:52.000Z,29.9
2018-10-01T07:09:52.000Z,30.1
2018-10-01T07:11:52.000Z,30.2
2018-10-01T07:12:52.000Z,30.3
2018-10-01T07:14:52.000Z,30.5
2018-10-01T07:16:52.000Z,30.6
2018-10-01T07:18:52.000Z,30.5
2018-10-01T07:19:52.000Z,30.5
2018-10-01T07:20:52.000Z,30.5
2018-10-01T07:21:52.000Z,30.5
2018-10-01T07:23:52.000Z,30.5
2018-10-01T07:25:52.000Z,30.5
2018-10-01T07:27:52.000Z,30.6
2018-10-01T07:29:52.000Z,30.9
2018-10-01T07:31:52.000Z,31.1
2018-10-01T07:33:52.000Z,31.3
2018-10-01T07:35:52.000Z,31.6
2018-10-01T07:36:52.000Z,31.7
2018-10-01T07:38:52.000Z,32
2018-10-01T07:39:52.000Z,32.2
2018-10-01T07:41:52.000Z,32.4
2018-10-01T07:43:52.000Z,32.7
2018-10-01T07:45:52.000Z,32.6
2018-10-01T07:46:52.000Z,32.6
2018-10-01T07:47:52.000Z,32.7
2018-10-01T07:49:52.000Z,32.7
2018-10-01T07:51:36.000Z,32.5
2018-10-01T07:52:51.000Z,32.2
2018-10-01T07:53:51.000Z,32
2018-10-01T07:54:51.000Z,31.9
2018-10-01T07:56:51.000Z,32
2018-10-01T07:58:51.000Z,32.1
2018-10-01T07:59:51.000Z,32.2
2018-10-01T08:01:51.000Z,32.1
2018-10-01T08:02:51.000Z,31.9
2018-10-01T08:04:36.000Z,31.7
2018-10-01T08:05:51.000Z,31.5
2018-10-01T08:07:51.000Z,31.3
2018-10-01T08:09:51.000Z,31.1
2018-10-01T08:11:51.000Z,31
2018-10-01T08:13:36.000Z,30.9
2018-10-01T08:14:51.000Z,30.8
2018-10-01T08:15:51.000Z,30.8
2018-10-01T08:17:51.000Z,30.8
2018-10-01T08:19:51.000Z,30.8
2018-10-01T08:21:36.000Z,30.7
2018-10-01T08:22:51.000Z,30.6
2018-10-01T08:23:51.000Z,30.6
2018-10-01T08:24:51.000Z,30.7
2018-10-01T08:26:51.000Z,30.7
2018-10-01T08:27:51.000Z,30.8
2018-10-01T08:29:51.000Z,30.7
2018-10-01T08:31:36.000Z,30.7
2018-10-01T08:32:51.000Z,30.6
2018-10-01T08:34:51.000Z,30.6
2018-10-01T08:36:51.000Z,30.6
2018-10-01T08:38:51.000Z,30.5
2018-10-01T08:39:51.000Z,30.5
2018-10-01T08:41:51.000Z,30.5
2018-10-01T08:42:51.000Z,30.6
2018-10-01T08:43:51.000Z,30.6
2018-10-01T08:44:51.000Z,30.7
2018-10-01T08:46:51.000Z,30.8
2018-10-01T08:47:51.000Z,30.8
2018-10-01T08:49:51.000Z,30.7
2018-10-01T08:51:51.000Z,30.6
2018-10-01T08:53:36.000Z,30.5
2018-10-01T08:54:52.000Z,30.5
2018-10-01T08:55:52.000Z,30.5
2018-10-01T08:56:52.000Z,30.5
2018-10-01T08:57:52.000Z,30.6
2018-10-01T08:59:52.000Z,30.7
2018-10-01T09:00:52.000Z,30.7
2018-10-01T09:02:52.000Z,30.7
2018-10-01T09:04:52.000Z,30.7
2018-10-01T09:05:52.000Z,30.7
2018-10-01T09:06:52.000Z,30.7
2018-10-01T09:08:52.000Z,30.8
2018-10-01T09:10:52.000Z,30.7
2018-10-01T09:11:52.000Z,30.7
2018-10-01T09:12:52.000Z,30.8
2018-10-01T09:13:52.000Z,30.8
2018-10-01T09:15:52.000Z,30.8
2018-10-01T09:17:52.000Z,30.8
2018-10-01T09:18:52.000Z,30.7
2018-10-01T09:19:52.000Z,30.8
2018-10-01T09:20:52.000Z,30.8
2018-10-01T09:22:52.000Z,30.8
2018-10-01T09:23:52.000Z,30.7
2018-10-01T09:25:37.000Z,30.8
2018-10-01T09:26:52.000Z,30.7
2018-10-01T09:27:52.000Z,30.7
2018-10-01T09:28:52.000Z,30.7
2018-10-01T09:29:52.000Z,30.8
2018-10-01T09:31:37.000Z,30.9
2018-10-01T09:32:52.000Z,30.8
2018-10-01T09:33:52.000Z,30.8
2018-10-01T09:34:52.000Z,30.8
2018-10-01T09:36:52.000Z,30.9
2018-10-01T09:45:02.000Z,29.8
2018-10-01T09:46:49.000Z,29.7
2018-10-01T09:47:49.000Z,29.8
2018-10-01T09:49:49.000Z,30
2018-10-01T09:51:49.000Z,30.1
2018-10-01T09:52:49.000Z,30.2
2018-10-01T09:54:49.000Z,30.3
2018-10-01T09:55:49.000Z,30.4
2018-10-01T09:57:49.000Z,30.5
2018-10-01T09:59:48.000Z,30.6
2018-10-01T10:01:48.000Z,30.6
2018-10-01T10:03:48.000Z,30.6
2018-10-01T10:04:48.000Z,30.6
2018-10-01T10:06:48.000Z,30.7
2018-10-01T10:07:48.000Z,30.7
2018-10-01T10:08:48.000Z,30.8
2018-10-01T10:09:48.000Z,30.9
2018-10-01T10:11:48.000Z,30.9
2018-10-01T10:13:33.000Z,30.9
2018-10-01T10:14:48.000Z,30.9
2018-10-01T10:16:48.000Z,30.8
2018-10-01T10:17:48.000Z,30.8
2018-10-01T10:18:48.000Z,30.9
2018-10-01T10:20:48.000Z,30.9
2018-10-01T10:22:48.000Z,30.8
2018-10-01T10:23:48.000Z,30.8
2018-10-01T10:25:48.000Z,30.8
2018-10-01T10:26:48.000Z,30.8
2018-10-01T10:27:48.000Z,30.8
2018-10-01T10:29:48.000Z,30.9
2018-10-01T10:31:48.000Z,30.8
2018-10-01T10:33:48.000Z,30.8
2018-10-01T10:34:48.000Z,30.7
2018-10-01T10:36:48.000Z,30.7
2018-10-01T10:37:48.000Z,30.8
2018-10-01T10:38:48.000Z,30.8
2018-10-01T10:40:48.000Z,30.8
2018-10-01T10:41:48.000Z,30.8
2018-10-01T10:43:48.000Z,30.9
2018-10-01T10:44:48.000Z,30.9
2018-10-01T10:46:48.000Z,30.8
2018-10-01T10:47:48.000Z,30.8
2018-10-01T10:49:48.000Z,30.7
2018-10-01T10:51:48.000Z,30.7
2018-10-01T10:53:48.000Z,30.6
2018-10-01T10:54:48.000Z,30.6
2018-10-01T10:56:48.000Z,30.6
2018-10-01T10:58:48.000Z,30.5
2018-10-01T10:59:48.000Z,30.5
2018-10-01T11:01:48.000Z,30.5
2018-10-01T11:02:48.000Z,30.5
2018-10-01T11:04:48.000Z,30.6
2018-10-01T11:06:48.000Z,30.6
2018-10-01T11:08:48.000Z,30.5
2018-10-01T11:10:48.000Z,30.4
2018-10-01T11:11:48.000Z,30.4
2018-10-01T11:12:48.000Z,30.5
2018-10-01T11:13:48.000Z,30.5
2018-10-01T11:14:48.000Z,30.6
2018-10-01T11:16:48.000Z,30.6
2018-10-01T11:18:48.000Z,30.6
2018-10-01T11:20:48.000Z,30.5
2018-10-01T11:22:48.000Z,30.5
2018-10-01T11:23:48.000Z,30.5
2018-10-01T11:24:48.000Z,30.5
2018-10-01T11:26:48.000Z,30.5
2018-10-01T11:27:48.000Z,30.5
2018-10-01T11:28:48.000Z,30.5
2018-10-01T11:30:33.000Z,30.6
2018-10-01T11:31:48.000Z,30.5
2018-10-01T11:32:48.000Z,30.5
2018-10-01T11:34:48.000Z,30.5
2018-10-01T11:35:48.000Z,30.5
2018-10-01T11:37:48.000Z,30.6
2018-10-01T11:39:33.000Z,30.6
2018-10-01T11:40:48.000Z,30.5
2018-10-01T11:41:48.000Z,30.5
2018-10-01T11:43:48.000Z,30.6
2018-10-01T11:45:33.000Z,30.6
2018-10-01T11:46:48.000Z,30.5
2018-10-01T11:48:48.000Z,30.5
2018-10-01T11:49:48.000Z,30.5
2018-10-01T11:50:48.000Z,30.5
2018-10-01T11:52:48.000Z,30.5
2018-10-01T11:54:48.000Z,30.5
2018-10-01T11:56:48.000Z,30.5
2018-10-01T11:57:48.000Z,30.5
2018-10-01T11:58:48.000Z,30.6
2018-10-01T12:00:48.000Z,30.6
2018-10-01T12:02:48.000Z,30.7
2018-10-01T12:04:33.000Z,30.7
2018-10-01T12:05:48.000Z,30.7
2018-10-01T12:07:48.000Z,30.6
2018-10-01T12:08:48.000Z,30.6
2018-10-01T12:10:33.000Z,30.7
2018-10-01T12:11:48.000Z,30.6
2018-10-01T12:13:48.000Z,30.7
2018-10-01T12:15:48.000Z,30.6
2018-10-01T12:17:48.000Z,30.6
2018-10-01T12:18:48.000Z,30.6
2018-10-01T12:19:48.000Z,30.6
2018-10-01T12:21:33.000Z,30.6
2018-10-01T12:22:48.000Z,30.6
2018-10-01T12:24:48.000Z,30.7
2018-10-01T12:25:48.000Z,30.8
2018-10-01T12:26:48.000Z,31
2018-10-01T12:28:48.000Z,31.2
2018-10-01T12:30:33.000Z,31.4
2018-10-01T12:31:48.000Z,31.4
2018-10-01T12:33:48.000Z,31.5
2018-10-01T12:35:48.000Z,31.7
2018-10-01T12:36:48.000Z,31.7
2018-10-01T12:38:48.000Z,31.9
2018-10-01T12:40:48.000Z,32
2018-10-01T12:42:48.000Z,32.2
2018-10-01T12:44:48.000Z,32.6
2018-10-01T12:46:48.000Z,32.6
2018-10-01T12:47:48.000Z,32.5
2018-10-01T12:49:48.000Z,32.5
2018-10-01T12:50:48.000Z,32.3
2018-10-01T12:52:33.000Z,32.1
2018-10-01T12:53:48.000Z,32.1
2018-10-01T12:55:48.000Z,32.7
2018-10-01T12:57:48.000Z,33.7
2018-10-01T12:59:48.000Z,34
2018-10-01T13:00:48.000Z,33.7
2018-10-01T13:02:33.000Z,33.4
2018-10-01T13:03:48.000Z,33.8
2018-10-01T13:04:48.000Z,34.5
2018-10-01T13:06:33.000Z,35.8
2018-10-01T13:07:48.000Z,36.4
2018-10-01T13:09:48.000Z,36.3
2018-10-01T13:11:48.000Z,35.8
2018-10-01T13:12:48.000Z,36
2018-10-01T13:14:48.000Z,36.4
2018-10-01T13:16:48.000Z,35.8
2018-10-01T13:17:48.000Z,35.5
2018-10-01T13:19:48.000Z,35
2018-10-01T13:21:48.000Z,34.6
2018-10-01T13:22:48.000Z,34.3
2018-10-01T13:23:48.000Z,34.2
2018-10-01T13:25:48.000Z,33.8
2018-10-01T13:26:48.000Z,33.6
2018-10-01T13:28:49.000Z,33.3
2018-10-01T13:30:49.000Z,33
2018-10-01T13:32:48.000Z,32.7
2018-10-01T13:34:48.000Z,32.6
2018-10-01T13:36:48.000Z,32.4
2018-10-01T13:37:48.000Z,32.4
2018-10-01T13:38:48.000Z,32.4
2018-10-01T13:39:48.000Z,32.3
2018-10-01T13:41:48.000Z,32.2
2018-10-01T13:42:48.000Z,32.1
2018-10-01T13:43:48.000Z,32.1
2018-10-01T13:45:48.000Z,32
2018-10-01T13:47:33.000Z,32
2018-10-01T13:48:48.000Z,31.9
2018-10-01T13:50:48.000Z,31.9
2018-10-01T13:52:48.000Z,32
2018-10-01T13:53:48.000Z,32
2018-10-01T13:55:48.000Z,31.9
2018-10-01T13:57:48.000Z,31.9
2018-10-01T13:58:48.000Z,31.9
2018-10-01T13:59:48.000Z,31.9
2018-10-01T14:01:48.000Z,31.8
2018-10-01T14:02:48.000Z,31.8
2018-10-01T14:03:48.000Z,31.8
2018-10-01T14:05:48.000Z,31.7
2018-10-01T14:06:48.000Z,31.7
2018-10-01T14:08:48.000Z,31.7
2018-10-01T14:10:48.000Z,31.6
2018-10-01T14:12:48.000Z,31.5
2018-10-01T14:13:48.000Z,31.5
2018-10-01T14:14:48.000Z,31.5
2018-10-01T14:16:48.000Z,31.6
2018-10-01T14:17:48.000Z,31.6
2018-10-01T14:21:42.000Z,31.8
2018-10-01T14:23:28.000Z,32
2018-10-01T14:24:28.000Z,32.1
2018-10-01T14:25:28.000Z,32.1
2018-10-01T14:26:28.000Z,32.1
2018-10-01T14:28:28.000Z,32.2
2018-10-01T14:30:28.000Z,32.1
2018-10-01T14:31:28.000Z,32
2018-10-01T14:33:28.000Z,31.9
2018-10-01T14:34:28.000Z,31.9
2018-10-01T14:36:28.000Z,31.8
2018-10-01T14:38:28.000Z,31.6
2018-10-01T14:39:28.000Z,31.6
2018-10-01T14:41:28.000Z,31.5
2018-10-01T14:43:28.000Z,31.5
2018-10-01T14:45:28.000Z,31.5
2018-10-01T14:47:28.000Z,31.5
2018-10-01T14:49:28.000Z,31.5
2018-10-01T14:50:28.000Z,31.5
2018-10-01T14:51:28.000Z,31.5
2018-10-01T14:53:28.000Z,31.5
2018-10-01T14:54:28.000Z,31.5
2018-10-01T14:56:28.000Z,31.5
2018-10-01T14:58:28.000Z,31.5
2018-10-01T14:59:28.000Z,31.5
2018-10-01T15:01:28.000Z,31.5
2018-10-01T15:02:28.000Z,31.5
2018-10-01T15:03:28.000Z,31.5
2018-10-01T15:05:28.000Z,31.5
2018-10-01T15:07:28.000Z,31.4
2018-10-01T15:08:28.000Z,31.3
2018-10-01T15:09:28.000Z,31.3
2018-10-01T15:11:28.000Z,31.4
2018-10-01T15:13:28.000Z,31.4
2018-10-01T15:14:28.000Z,31.4
2018-10-01T15:16:29.000Z,31.4
2018-10-01T15:18:29.000Z,31.3
2018-10-01T15:20:13.000Z,31.3
2018-10-01T15:21:29.000Z,31.2
2018-10-01T15:22:29.000Z,31.2
2018-10-01T15:24:13.000Z,31.3
2018-10-01T15:25:29.000Z,31.2
2018-10-01T15:27:29.000Z,31.2
2018-10-01T15:29:29.000Z,31.1
2018-10-01T15:31:29.000Z,31.1
2018-10-01T15:32:29.000Z,31.1
2018-10-01T15:34:29.000Z,31.2
2018-10-01T15:35:29.000Z,31.2
2018-10-01T15:37:29.000Z,31.2
2018-10-01T15:38:29.000Z,31.3
2018-10-01T15:40:29.000Z,31.2
2018-10-01T15:42:29.000Z,31.1
2018-10-01T15:43:29.000Z,31.1
2018-10-01T15:45:29.000Z,31.1
2018-10-01T15:47:29.000Z,31
2018-10-01T15:49:29.000Z,30.9
2018-10-01T15:50:29.000Z,30.9
2018-10-01T15:52:13.000Z,30.9
2018-10-01T15:53:29.000Z,30.8
2018-10-01T15:54:29.000Z,30.9
2018-10-01T15:56:29.000Z,30.9
2018-10-01T15:57:29.000Z,30.9
2018-10-01T15:58:29.000Z,30.9
2018-10-01T16:00:29.000Z,30.9
2018-10-01T16:01:29.000Z,30.9
2018-10-01T16:03:29.000Z,30.9
2018-10-01T16:05:29.000Z,30.9
2018-10-01T16:06:29.000Z,30.9
2018-10-01T16:08:29.000Z,30.9
2018-10-01T16:09:29.000Z,30.9
2018-10-01T16:11:29.000Z,30.8
2018-10-01T16:13:29.000Z,30.8
2018-10-01T16:15:29.000Z,30.7
2018-10-01T16:16:29.000Z,30.7
2018-10-01T16:18:29.000Z,30.6
2018-10-01T16:20:28.000Z,30.5
2018-10-01T16:22:28.000Z,30.5
2018-10-01T16:23:28.000Z,30.5
2018-10-01T16:24:28.000Z,30.5
2018-10-01T16:26:28.000Z,30.5
2018-10-01T16:27:28.000Z,30.5
2018-10-01T16:29:28.000Z,30.5
2018-10-01T16:31:28.000Z,30.4
2018-10-01T16:33:28.000Z,30.3
2018-10-01T16:34:28.000Z,30.3
2018-10-01T16:36:28.000Z,30.3
2018-10-01T16:37:28.000Z,30.3
2018-10-01T16:39:28.000Z,30.4
2018-10-01T16:41:28.000Z,30.3
2018-10-01T16:42:29.000Z,30.3
2018-10-01T16:44:28.000Z,30.3
2018-10-01T16:46:28.000Z,30.3
2018-10-01T16:48:28.000Z,30.3
2018-10-01T16:49:28.000Z,30.3
2018-10-01T16:51:28.000Z,30.3
2018-10-01T16:52:28.000Z,30.3
2018-10-01T16:54:28.000Z,30.3
2018-10-01T16:55:28.000Z,30.3
2018-10-01T16:57:13.000Z,30.3
2018-10-01T16:58:28.000Z,30.3
2018-10-01T17:00:28.000Z,30.2
2018-10-01T17:02:29.000Z,30.2
2018-10-01T17:04:28.000Z,30
2018-10-01T17:06:28.000Z,30
2018-10-01T17:07:29.000Z,30
2018-10-01T17:09:28.000Z,30
2018-10-01T17:11:28.000Z,30
2018-10-01T17:12:29.000Z,30
2018-10-01T17:14:13.000Z,30
2018-10-01T17:15:29.000Z,30
2018-10-01T17:17:29.000Z,30
2018-10-01T17:18:29.000Z,30
2018-10-01T17:20:28.000Z,30
2018-10-01T17:22:29.000Z,29.9
2018-10-01T17:24:29.000Z,29.9
2018-10-01T17:26:29.000Z,29.9
2018-10-01T17:27:29.000Z,29.9
2018-10-01T17:28:29.000Z,29.9
2018-10-01T17:30:29.000Z,30
2018-10-01T17:31:29.000Z,30
2018-10-01T17:32:29.000Z,30
2018-10-01T17:33:29.000Z,30
2018-10-01T17:35:28.000Z,30
2018-10-01T17:36:29.000Z,30
2018-10-01T17:38:28.000Z,30
2018-10-01T17:40:29.000Z,30
2018-10-01T17:41:29.000Z,30
2018-10-01T17:43:29.000Z,30
2018-10-01T17:44:29.000Z,30
2018-10-01T17:46:28.000Z,29.9
2018-10-01T17:47:28.000Z,29.9
2018-10-01T17:49:29.000Z,29.9
2018-10-01T17:50:29.000Z,29.9
2018-10-01T17:52:29.000Z,29.9
2018-10-01T17:53:29.000Z,29.8
2018-10-01T17:55:29.000Z,29.8
2018-10-01T17:57:28.000Z,29.8
2018-10-01T17:58:29.000Z,29.7
2018-10-01T18:00:29.000Z,29.8
2018-10-01T18:01:29.000Z,29.8
2018-10-01T18:02:29.000Z,29.8
2018-10-01T18:04:29.000Z,29.8
2018-10-01T18:06:29.000Z,29.7
2018-10-01T18:08:29.000Z,29.7
2018-10-01T18:10:29.000Z,29.6
2018-10-01T18:11:29.000Z,29.6
2018-10-01T18:13:29.000Z,29.6
2018-10-01T18:15:29.000Z,29.6
2018-10-01T18:17:29.000Z,29.5
2018-10-01T18:19:29.000Z,29.5
2018-10-01T18:21:29.000Z,29.5
2018-10-01T18:22:29.000Z,29.5
2018-10-01T18:24:29.000Z,29.6
2018-10-01T18:25:29.000Z,29.6
2018-10-01T18:27:29.000Z,29.6
2018-10-01T18:29:29.000Z,29.6
2018-10-01T18:31:29.000Z,29.5
2018-10-01T18:32:29.000Z,29.5
2018-10-01T18:34:29.000Z,29.6
2018-10-01T18:35:29.000Z,29.6
2018-10-01T18:37:13.000Z,29.6
2018-10-01T18:38:29.000Z,29.6
2018-10-01T18:39:29.000Z,29.6
2018-10-01T18:41:29.000Z,29.6
2018-10-01T18:42:29.000Z,29.6
2018-10-01T18:44:29.000Z,29.6
2018-10-01T18:45:29.000Z,29.6
2018-10-01T18:47:29.000Z,29.6
2018-10-01T18:48:29.000Z,29.6
2018-10-01T18:50:29.000Z,29.6
2018-10-01T18:52:29.000Z,29.5
2018-10-01T18:53:29.000Z,29.5
2018-10-01T18:54:29.000Z,29.5
2018-10-01T18:56:29.000Z,29.5
2018-10-01T18:57:29.000Z,29.5
2018-10-01T18:59:29.000Z,29.5
2018-10-01T19:00:29.000Z,29.5
2018-10-01T19:02:29.000Z,29.6
2018-10-01T19:03:29.000Z,29.6
2018-10-01T19:05:29.000Z,29.6
2018-10-01T19:06:29.000Z,29.6
2018-10-01T19:07:29.000Z,29.6
2018-10-01T19:08:29.000Z,29.7
2018-10-01T19:09:29.000Z,29.7
2018-10-01T19:11:29.000Z,29.6
2018-10-01T19:12:29.000Z,29.6
2018-10-01T19:13:29.000Z,29.6
2018-10-01T19:14:29.000Z,29.6
2018-10-01T19:16:29.000Z,29.6
2018-10-01T19:17:29.000Z,29.6
2018-10-01T19:19:29.000Z,29.6
2018-10-01T19:20:29.000Z,29.6
2018-10-01T19:22:13.000Z,29.7
2018-10-01T19:23:29.000Z,29.6
2018-10-01T19:24:29.000Z,29.6
2018-10-01T19:26:29.000Z,29.6
2018-10-01T19:27:29.000Z,29.6
2018-10-01T19:29:29.000Z,29.6
2018-10-01T19:31:29.000Z,29.6
2018-10-01T19:33:29.000Z,29.5
2018-10-01T19:34:29.000Z,29.5
2018-10-01T19:36:29.000Z,29.5
2018-10-01T19:38:29.000Z,29.5
2018-10-01T19:39:29.000Z,29.5
2018-10-01T19:41:29.000Z,29.5
2018-10-01T19:43:29.000Z,29.4
2018-10-01T19:45:29.000Z,29.3
2018-10-01T19:47:29.000Z,29.3
2018-10-01T19:48:29.000Z,29.3
2018-10-01T19:49:29.000Z,29.3
2018-10-01T19:51:29.000Z,29.4
2018-10-01T19:53:29.000Z,29.4
2018-10-01T19:55:29.000Z,29.3
2018-10-01T19:56:29.000Z,29.3
2018-10-01T19:57:29.000Z,29.3
2018-10-01T19:59:29.000Z,29.4
2018-10-01T20:00:29.000Z,29.4
2018-10-01T20:02:29.000Z,29.4
2018-10-01T20:03:29.000Z,29.4
2018-10-01T20:05:29.000Z,29.4
2018-10-01T20:07:29.000Z,29.4
2018-10-01T20:09:29.000Z,29.3
2018-10-01T20:10:29.000Z,29.3
2018-10-01T20:12:29.000Z,29.3
2018-10-01T20:14:29.000Z,29.2
2018-10-01T20:15:29.000Z,29.2
2018-10-01T20:16:29.000Z,29.3
2018-10-01T20:17:29.000Z,29.3
2018-10-01T20:19:29.000Z,29.3
2018-10-01T20:20:29.000Z,29.2
2018-10-01T20:22:29.000Z,29.2
2018-10-01T20:24:13.000Z,29.2
2018-10-01T20:25:29.000Z,29.1
2018-10-01T20:27:29.000Z,29.1
2018-10-01T20:28:29.000Z,29.2
2018-10-01T20:30:13.000Z,29.2
2018-10-01T20:31:29.000Z,29.2
2018-10-01T20:33:29.000Z,29.1
2018-10-01T20:35:29.000Z,29
2018-10-01T20:36:29.000Z,29
2018-10-01T20:38:29.000Z,29
2018-10-01T20:39:29.000Z,29
2018-10-01T20:41:29.000Z,29
2018-10-01T20:42:29.000Z,29.1
2018-10-01T20:44:29.000Z,29.1
2018-10-01T20:46:29.000Z,29.1
2018-10-01T20:47:29.000Z,29.1
2018-10-01T20:49:29.000Z,29.2
2018-10-01T20:51:29.000Z,29.1
2018-10-01T20:53:29.000Z,29
2018-10-01T20:55:29.000Z,28.9
2018-10-01T20:57:29.000Z,28.9
2018-10-01T20:58:29.000Z,28.9
2018-10-01T21:00:29.000Z,28.9